Colorado Springs, CO

12:46 PM MDT on May 28, 2015 (GMT -0600)
City Of Colorado Springs Municipal | | Change Station
CLOSE
Current Station
Airport
Location: Colorado Springs,
Elevation: 6171 ft
Nearby Weather Stations

Elev 6171 ft 38.81 °N, 104.69 °W | Updated 52 minutes ago

Mostly Cloudy
Mostly Cloudy
70 °F
Feels Like 70 °F
N
10
Wind Variable Wind from SSE

Today
High -- | Low -- °F
--% Chance of Precip.
Yesterday
High -- | Low -- °F
Precip. -- in
5:37 AM 8:15 PM
Waxing Gibbous, 77% visible
Pressure 29.86 in
Visibility 10.0 miles
Clouds Scattered Clouds 7000 ft
Scattered Clouds 11000 ft
Mostly Cloudy 22000 ft
Dew Point 42 °F
Humidity 36%
Rainfall 0.00 in
Snow Depth Not available.
UV 7 out of 12
Pollen 7.80 out of 12
Air Quality Not available.
Flu Activity Sporadic
METAR KCOS 281754Z 16009KT 10SM SCT070 SCT110 BKN220 21/06 A3008 RMK AO2 SLP112 MDT CU W T02110056 10217 20100 56009

More Conditions Fewer Conditions

Pressure 29.86 in
Visibility 10.0 miles
Clouds Scattered Clouds 7000 ft
Scattered Clouds 11000 ft
Mostly Cloudy 22000 ft
Dew Point 42 °F
Humidity 36%
Rainfall 0.00 in
Snow Depth Not available.
UV 7 out of 12
Pollen 7.80 out of 12
Air Quality Not available.
Flu Activity Sporadic
METAR KCOS 281754Z 16009KT 10SM SCT070 SCT110 BKN220 21/06 A3008 RMK AO2 SLP112 MDT CU W T02110056 10217 20100 56009

More Conditions Fewer Conditions

10-Day Weather Forecast

Almanac

Astronomy

May. 28, 2015 Rise Set
Actual Time
Civil Twilight
Nautical Twilight
Astronomical Twilight
Moon
Length of Visible Light
Length of Day
Tomorrow will be .
, % of the Moon is Illuminated

Today's Extremes

State Highs State Lows

Community

WunderPhotos

Upload Photos

1,825,015 photos uploaded!

WunderBlogs® & News

Nearby

Air Quality

  Air Quality AQ Index Pollutant
Not available.

Snow Depth

Station Depth Elevation

Earthquake Activity

City Distance Mag. Time & Date
Minimum magnitude displayed is 2.5.

Coastal Water Temperatures

Place Temperature

Stations

Nearby Weather Stations

Station Location Temp. Windchill Dew Point Humidity Wind Precip. Elev Updated Type